Decoded Metar for LFRN (RENNES in FRANCE) (IATA:RNS) | Meteo·Mobile Aviation Weather
aviador You're here:

LFRN Decoded Metar

RENNES in FRANCE
Report Time2018-08-21 16:00:00
UTC Time2018-08-21 16:06:57
Flight Rules vfr VFR
Wind340° at 07 kt
W.Decomp.*RWY 32: 6.5 kt HW 2.6 kt RCW
RWY 28: 3.3 kt HW 6.2 kt RCW
W.Rank340° ranks 10
Current wind is above 340° avg. (6.9)
Visibility9999 m
Phenomena:N/A
Clouds:Broken 031 Hf
Expected CloudBase > 3,600 ft AGL from Temp-Dew spread
Ceiling3,100 ft
Temp26°C (ISA +11)
Dew Point17°C (58% RH)
AAT25.9°C
QNH1019 hPa
Density Alt1,476 ft
Elevation121 ft
Report Wrong Elevation
Raw Report
METAR LFRN 211600Z AUTO 34007KT 300V020 9999 BKN031 26/17 Q1019
NOSIG=

Extra information for LFRN:More info

Metar Taf Metar & Taf Last 4 Metars F.Rules Stats Wind Profile Meteogram Temp Stats Airport Information Weather charts Add Link Nearby VenuesMetar ALERT Operation Metar Decoded Social comments